createdAt,value
2022-11-30T00:01:18.940Z,99289.09
2022-11-30T00:03:46.427Z,99296.41
2022-11-30T00:06:16.058Z,99286.31
2022-11-30T00:08:43.430Z,99290.13
2022-11-30T00:11:16.370Z,99286.13
2022-11-30T00:13:43.301Z,99286.13
2022-11-30T00:16:10.481Z,99288.59
2022-11-30T00:18:38.135Z,99292.94
2022-11-30T00:21:09.031Z,99290.50
2022-11-30T00:23:38.887Z,99290.09
2022-11-30T00:26:09.010Z,99295.53
2022-11-30T00:28:38.060Z,99287.00
2022-11-30T00:31:08.299Z,99303.84
2022-11-30T00:33:37.715Z,99298.53
2022-11-30T00:36:07.674Z,99302.06
2022-11-30T00:38:34.754Z,99301.78
2022-11-30T00:41:02.163Z,99301.34
2022-11-30T00:43:29.537Z,99302.16
2022-11-30T00:45:57.866Z,99292.13
2022-11-30T00:48:25.182Z,99301.03
2022-11-30T00:50:52.428Z,99305.59
2022-11-30T00:53:20.315Z,99316.63
2022-11-30T00:55:48.317Z,99320.78
2022-11-30T04:57:31.369Z,99374.97
2022-11-30T04:59:58.365Z,99354.19
2022-11-30T05:02:25.240Z,99367.84
2022-11-30T05:04:52.227Z,99380.16
2022-11-30T05:07:19.234Z,99368.72
2022-11-30T05:10:03.182Z,99382.94
2022-11-30T05:12:59.473Z,99370.53
2022-11-30T05:15:42.345Z,99378.28
2022-11-30T05:18:32.624Z,99366.28
2022-11-30T05:21:17.606Z,99363.41
2022-11-30T05:24:04.627Z,99377.81
2022-11-30T05:27:06.465Z,99375.09
2022-11-30T05:29:53.595Z,99383.47
2022-11-30T05:32:20.483Z,99376.47
2022-11-30T05:34:51.012Z,99386.34
2022-11-30T05:37:19.637Z,99389.72
2022-11-30T05:39:46.603Z,99395.97
2022-11-30T05:42:13.505Z,99373.69
2022-11-30T05:44:40.430Z,99401.81
2022-11-30T05:47:07.436Z,99390.03
2022-11-30T05:49:34.382Z,99383.34
2022-11-30T05:52:01.279Z,99392.56
2022-11-30T05:54:28.230Z,99403.28
2022-11-30T05:56:55.501Z,99399.47
2022-11-30T05:59:23.117Z,99401.91
2022-11-30T06:01:52.782Z,99396.69
2022-11-30T06:04:20.514Z,99401.81
2022-11-30T06:06:47.923Z,99407.19
2022-11-30T06:09:14.866Z,99402.44
2022-11-30T06:11:41.734Z,99399.78
2022-11-30T06:14:08.655Z,99409.75
2022-11-30T06:16:35.588Z,99403.28
2022-11-30T06:19:02.512Z,99407.97
2022-11-30T06:21:29.414Z,99403.47
2022-11-30T06:23:57.174Z,99372.72
2022-11-30T06:26:24.040Z,99407.81
2022-11-30T06:28:51.016Z,99393.72
2022-11-30T06:31:17.974Z,99404.00
2022-11-30T06:33:44.947Z,99405.19
2022-11-30T06:36:11.874Z,99409.88
2022-11-30T06:38:38.794Z,99402.44
2022-11-30T06:41:09.726Z,99399.78
2022-11-30T06:43:39.004Z,99403.28
2022-11-30T06:46:07.222Z,99404.16
2022-11-30T06:48:35.818Z,99398.09
2022-11-30T06:51:06.644Z,99412.09
2022-11-30T06:53:33.599Z,99402.66
2022-11-30T06:56:09.629Z,99409.63
2022-11-30T06:58:38.753Z,99400.97
2022-11-30T07:01:07.427Z,99414.63
2022-11-30T07:03:34.467Z,99408.19
2022-11-30T07:06:01.344Z,99418.03
2022-11-30T07:08:28.332Z,99402.88
2022-11-30T07:10:55.196Z,99375.47
2022-11-30T07:13:22.196Z,99399.34
2022-11-30T07:15:49.064Z,99416.25
2022-11-30T07:18:16.011Z,99429.59
2022-11-30T07:20:43.068Z,99424.09
2022-11-30T07:23:28.768Z,99399.38
2022-11-30T07:26:12.567Z,99424.50
2022-11-30T07:28:42.173Z,99427.69
2022-11-30T07:31:27.024Z,99417.94
2022-11-30T07:33:53.993Z,99420.28
2022-11-30T07:36:23.908Z,99421.34
2022-11-30T07:38:50.764Z,99419.44
2022-11-30T07:41:18.013Z,99425.81
2022-11-30T07:43:45.183Z,99429.19
2022-11-30T07:46:13.748Z,99426.13
2022-11-30T07:48:40.934Z,99428.97
2022-11-30T07:51:12.504Z,99432.91
2022-11-30T07:53:41.325Z,99427.06
2022-11-30T07:56:11.624Z,99429.81
2022-11-30T07:58:39.626Z,99425.16
2022-11-30T08:01:09.750Z,99434.47
2022-11-30T08:03:37.479Z,99439.25
2022-11-30T08:06:10.090Z,99438.53
2022-11-30T08:08:39.445Z,99436.09
2022-11-30T08:11:08.112Z,99440.09
2022-11-30T08:13:35.428Z,99429.41
2022-11-30T08:16:03.916Z,99439.38
2022-11-30T08:18:30.852Z,99438.97
2022-11-30T08:21:06.239Z,99445.09
2022-11-30T08:23:36.547Z,99443.75
2022-11-30T08:26:06.611Z,99443.75
2022-11-30T08:28:36.361Z,99450.41
2022-11-30T08:31:24.892Z,99444.06
2022-11-30T08:33:56.725Z,99441.91
2022-11-30T08:36:25.800Z,99438.53
2022-11-30T08:38:52.779Z,99444.38
2022-11-30T08:41:21.723Z,99442.97
2022-11-30T08:43:49.727Z,99440.44
2022-11-30T08:49:21.450Z,99441.06
2022-11-30T08:52:16.446Z,99444.25
2022-11-30T08:57:33.727Z,99447.97
2022-11-30T09:00:00.613Z,99440.75
2022-11-30T09:02:27.721Z,99447.88
2022-11-30T09:04:54.660Z,99439.03
2022-11-30T09:07:21.686Z,99445.09
2022-11-30T09:09:48.704Z,99442.66
2022-11-30T09:12:15.700Z,99444.25
2022-11-30T09:14:42.904Z,99441.50
2022-11-30T09:17:09.835Z,99446.56
2022-11-30T09:19:36.877Z,99447.22
2022-11-30T09:22:03.981Z,99452.28
2022-11-30T09:24:30.904Z,99453.78
2022-11-30T09:26:58.024Z,99402.00
2022-11-30T09:29:25.046Z,99424.47
2022-11-30T09:31:51.984Z,99442.50
2022-11-30T09:34:18.953Z,99436.22
2022-11-30T09:36:45.937Z,99446.53
2022-11-30T09:39:13.268Z,99443.22
2022-11-30T09:41:54.159Z,99443.31
2022-11-30T09:44:48.254Z,99431.78
2022-11-30T09:47:57.722Z,99435.09
2022-11-30T09:50:28.335Z,99443.88
2022-11-30T09:53:06.665Z,99433.25
2022-11-30T09:55:40.185Z,99448.84
2022-11-30T09:58:07.937Z,99442.03
2022-11-30T10:00:37.154Z,99441.44
2022-11-30T10:03:06.549Z,99433.16
2022-11-30T10:06:11.477Z,99436.50
2022-11-30T10:09:17.226Z,99435.63
2022-11-30T10:11:58.410Z,99424.22
2022-11-30T10:14:43.084Z,99419.34
2022-11-30T10:17:45.331Z,99424.41
2022-11-30T10:20:31.641Z,99412.91
2022-11-30T10:23:31.632Z,99427.72
2022-11-30T10:25:58.577Z,99429.19
2022-11-30T10:28:48.971Z,99425.56
2022-11-30T10:31:17.382Z,99429.47
2022-11-30T10:33:52.649Z,99428.28
2022-11-30T10:36:37.386Z,99424.16
2022-11-30T10:39:28.403Z,99429.41
2022-11-30T10:42:12.626Z,99424.34
2022-11-30T10:44:43.283Z,99417.97
2022-11-30T10:47:24.532Z,99418.44
2022-11-30T10:49:53.076Z,99413.19
2022-11-30T10:52:28.016Z,99414.47
2022-11-30T10:55:02.211Z,99410.97
2022-11-30T10:57:32.589Z,99417.66
2022-11-30T11:00:02.719Z,99415.75
2022-11-30T11:02:40.480Z,99416.19
2022-11-30T11:05:18.729Z,99412.75
2022-11-30T11:08:05.760Z,99410.72
2022-11-30T11:10:49.953Z,99416.63
2022-11-30T11:13:19.470Z,99422.44
2022-11-30T11:16:00.899Z,99414.81
2022-11-30T11:18:30.458Z,99425.84
2022-11-30T11:21:19.283Z,99414.59
2022-11-30T11:23:50.239Z,99416.56
2022-11-30T11:26:23.837Z,99402.09
2022-11-30T11:28:53.367Z,99407.34
2022-11-30T11:31:33.760Z,99404.13
2022-11-30T11:34:00.891Z,99421.88
2022-11-30T11:36:31.103Z,99399.78
2022-11-30T11:38:59.832Z,99413.56
2022-11-30T11:41:28.558Z,99417.97
2022-11-30T11:44:06.519Z,99419.56
2022-11-30T11:46:36.781Z,99418.41
2022-11-30T11:49:06.793Z,99423.19
2022-11-30T11:51:37.100Z,99416.41
2022-11-30T11:54:07.197Z,99421.59
2022-11-30T11:56:36.955Z,99409.91
2022-11-30T11:59:34.546Z,99427.50
2022-11-30T12:02:44.207Z,99415.75
2022-11-30T12:05:37.175Z,99419.69
2022-11-30T12:08:28.402Z,99425.84
2022-11-30T12:11:25.964Z,99425.34
2022-11-30T12:13:54.009Z,99427.66
2022-11-30T12:16:26.656Z,99427.78
2022-11-30T12:19:19.186Z,99427.31
2022-11-30T12:22:07.729Z,99434.72
2022-11-30T12:24:43.584Z,99441.00
2022-11-30T12:27:37.097Z,99440.78
2022-11-30T12:30:16.075Z,99436.41
2022-11-30T12:33:07.545Z,99430.72
2022-11-30T12:35:45.868Z,99433.25
2022-11-30T12:38:50.386Z,99424.59
2022-11-30T12:41:56.147Z,99421.44
2022-11-30T12:44:42.125Z,99429.41
2022-11-30T12:47:37.152Z,99436.19
2022-11-30T12:50:41.006Z,99429.41
2022-11-30T12:53:14.109Z,99429.44
2022-11-30T12:56:01.317Z,99436.91
2022-11-30T12:59:07.164Z,99438.22
2022-11-30T13:01:59.655Z,99424.38
2022-11-30T13:04:46.505Z,99431.50
2022-11-30T13:07:32.114Z,99437.38
2022-11-30T13:10:06.752Z,99429.88
2022-11-30T13:12:39.008Z,99416.06
2022-11-30T13:15:15.807Z,99433.06
2022-11-30T13:17:44.156Z,99432.44
2022-11-30T13:20:39.416Z,99433.19
2022-11-30T13:23:15.269Z,99432.75
2022-11-30T13:26:21.260Z,99421.75
2022-11-30T13:29:04.736Z,99431.72
2022-11-30T13:32:04.553Z,99434.66
2022-11-30T13:34:32.993Z,99426.91
2022-11-30T13:37:06.309Z,99431.50
2022-11-30T13:39:51.523Z,99435.75
2022-11-30T13:42:31.270Z,99430.00
2022-11-30T13:45:18.253Z,99430.22
2022-11-30T13:47:54.724Z,99435.97
2022-11-30T13:50:34.838Z,99397.34
2022-11-30T13:53:27.154Z,99438.84
2022-11-30T13:56:09.245Z,99434.91
2022-11-30T13:58:36.234Z,99426.22
2022-11-30T14:01:21.733Z,99436.81
2022-11-30T14:04:21.248Z,99432.16
2022-11-30T14:07:00.824Z,99437.78
2022-11-30T14:09:42.960Z,99439.06
2022-11-30T14:12:40.343Z,99446.78
2022-11-30T14:15:34.539Z,99439.91
2022-11-30T14:18:22.010Z,99443.97
2022-11-30T14:21:01.160Z,99449.75
2022-11-30T14:23:40.371Z,99448.41
2022-11-30T14:26:11.551Z,99443.19
2022-11-30T14:28:56.729Z,99440.22
2022-11-30T14:31:26.963Z,99441.81
2022-11-30T14:33:59.089Z,99438.66
2022-11-30T14:36:34.720Z,99436.31
2022-11-30T14:39:01.983Z,99436.00
2022-11-30T14:41:30.678Z,99419.00
2022-11-30T14:44:12.837Z,99426.66
2022-11-30T14:46:40.739Z,99426.22
2022-11-30T14:49:17.442Z,99426.44
2022-11-30T14:51:49.708Z,99427.38
2022-11-30T14:54:25.571Z,99430.25
2022-11-30T14:56:59.269Z,99428.56
2022-11-30T14:59:48.061Z,99423.16
2022-11-30T15:02:26.914Z,99435.34
2022-11-30T15:04:55.611Z,99430.66
2022-11-30T15:07:24.185Z,99422.53
2022-11-30T15:09:57.765Z,99443.19
2022-11-30T15:12:25.778Z,99422.84
2022-11-30T15:15:11.926Z,99441.06
2022-11-30T15:17:49.201Z,99448.19
2022-11-30T15:20:26.152Z,99448.94
2022-11-30T15:22:55.116Z,99454.75
2022-11-30T15:25:25.350Z,99449.91
2022-11-30T15:27:52.657Z,99460.81
2022-11-30T15:30:19.895Z,99445.63
2022-11-30T15:32:52.937Z,99459.88
2022-11-30T15:35:23.800Z,99463.34
2022-11-30T15:37:51.269Z,99453.91
2022-11-30T15:40:35.034Z,99459.97
2022-11-30T15:43:02.480Z,99464.75
2022-11-30T15:45:39.001Z,99472.16
2022-11-30T15:48:38.331Z,99477.38
2022-11-30T15:51:06.780Z,99476.84
2022-11-30T15:53:49.393Z,99463.25
2022-11-30T15:56:28.165Z,99486.09
2022-11-30T15:59:22.844Z,99490.53
2022-11-30T16:02:02.824Z,99486.28
2022-11-30T16:04:58.835Z,99493.81
2022-11-30T16:07:30.181Z,99494.22
2022-11-30T16:10:04.948Z,99497.44
2022-11-30T16:12:31.888Z,99500.31
2022-11-30T16:14:58.885Z,99498.91
2022-11-30T16:17:27.653Z,99502.19
2022-11-30T16:19:54.568Z,99507.94
2022-11-30T16:22:21.487Z,99498.59
2022-11-30T16:24:48.383Z,99503.28
2022-11-30T16:27:20.407Z,99495.41
2022-11-30T16:29:52.156Z,99505.16
2022-11-30T16:32:19.681Z,99504.97
2022-11-30T16:34:48.373Z,99509.53
2022-11-30T16:37:15.310Z,99512.50
2022-11-30T16:39:42.282Z,99500.72
2022-11-30T16:42:12.877Z,99489.06
2022-11-30T16:44:39.827Z,99507.09
2022-11-30T16:47:06.717Z,99503.16
2022-11-30T16:49:33.676Z,99501.34
2022-11-30T16:52:00.561Z,99504.34
2022-11-30T16:54:27.606Z,99506.25
2022-11-30T16:56:54.514Z,99498.19
2022-11-30T16:59:21.410Z,99502.84
2022-11-30T17:01:53.574Z,99502.97
2022-11-30T17:04:26.230Z,99511.75
2022-11-30T17:07:00.489Z,99508.56
2022-11-30T17:09:30.575Z,99518.25
2022-11-30T17:11:57.604Z,99512.06
2022-11-30T17:14:24.549Z,99511.34
2022-11-30T17:16:51.525Z,99515.81
2022-11-30T17:19:18.476Z,99517.72
2022-11-30T17:21:45.494Z,99501.47
2022-11-30T17:24:13.349Z,99498.06
2022-11-30T17:26:40.710Z,99489.16
2022-11-30T17:29:07.638Z,99512.00
2022-11-30T17:31:34.844Z,99500.84
2022-11-30T17:34:01.939Z,99509.44
2022-11-30T17:36:29.597Z,99497.97
2022-11-30T17:38:56.970Z,99506.25
2022-11-30T17:41:24.111Z,99482.25
2022-11-30T17:43:52.301Z,99509.44
2022-11-30T17:46:19.589Z,99508.56
2022-11-30T17:48:46.861Z,99493.41
2022-11-30T17:51:14.361Z,99503.47
2022-11-30T17:53:42.990Z,99506.78
2022-11-30T17:56:12.654Z,99502.31
2022-11-30T17:58:43.787Z,99509.88
2022-11-30T18:01:20.459Z,99509.19
2022-11-30T18:03:47.906Z,99514.19
2022-11-30T18:06:15.673Z,99499.88
2022-11-30T18:08:43.169Z,99517.06
2022-11-30T18:11:11.882Z,99509.66
2022-11-30T18:13:39.741Z,99511.75
2022-11-30T18:16:27.933Z,99508.16
2022-11-30T18:18:57.579Z,99506.44
2022-11-30T18:21:26.828Z,99503.41
2022-11-30T18:23:54.036Z,99487.56
2022-11-30T18:26:24.312Z,99494.56
2022-11-30T18:28:53.373Z,99508.78
2022-11-30T18:31:20.532Z,99517.81
2022-11-30T18:33:47.714Z,99517.31
2022-11-30T18:36:14.964Z,99516.00
2022-11-30T18:38:42.032Z,99503.06
2022-11-30T18:41:08.940Z,99517.47
2022-11-30T18:43:38.428Z,99522.38
2022-11-30T18:46:08.580Z,99521.44
2022-11-30T18:48:35.989Z,99516.44
2022-11-30T18:51:14.368Z,99517.28
2022-11-30T18:53:41.858Z,99526.44
2022-11-30T18:56:14.740Z,99518.34
2022-11-30T18:58:42.685Z,99521.84
2022-11-30T19:01:12.602Z,99531.09
2022-11-30T19:03:40.410Z,99527.47
2022-11-30T19:06:09.071Z,99525.97
2022-11-30T19:08:37.524Z,99535.53
2022-11-30T19:11:09.659Z,99531.94
2022-11-30T19:13:37.750Z,99520.88
2022-11-30T19:16:08.816Z,99526.81
2022-11-30T19:18:37.471Z,99524.72
2022-11-30T19:21:10.624Z,99534.16
2022-11-30T19:23:39.115Z,99520.03
2022-11-30T19:26:08.203Z,99532.34
2022-11-30T19:28:37.273Z,99533.75
2022-11-30T19:31:23.959Z,99498.72
2022-11-30T19:33:54.629Z,99511.97
2022-11-30T19:36:24.987Z,99522.56
2022-11-30T19:38:52.748Z,99516.19
2022-11-30T19:41:21.764Z,99518.66
2022-11-30T19:44:02.752Z,99522.56
2022-11-30T19:46:32.377Z,99525.53
2022-11-30T19:49:02.016Z,99509.59
2022-11-30T19:51:30.870Z,99511.72
2022-11-30T19:54:01.575Z,99526.81
2022-11-30T19:56:31.741Z,99517.69
2022-11-30T19:59:04.582Z,99529.16
2022-11-30T20:01:33.745Z,99531.91
2022-11-30T20:04:01.687Z,99526.59
2022-11-30T20:06:33.170Z,99529.78
2022-11-30T20:09:02.795Z,99531.34
2022-11-30T20:11:29.937Z,99530.50
2022-11-30T20:13:56.968Z,99533.16
2022-11-30T20:16:24.358Z,99534.56
2022-11-30T20:18:55.876Z,99525.13
2022-11-30T20:21:26.542Z,99525.94
2022-11-30T20:23:55.299Z,99526.25
2022-11-30T20:26:30.600Z,99529.78
2022-11-30T20:28:59.141Z,99476.47
2022-11-30T20:31:27.964Z,99531.34
2022-11-30T20:33:55.138Z,99506.84
2022-11-30T20:36:24.747Z,99523.50
2022-11-30T20:38:51.914Z,99507.91
2022-11-30T20:41:21.523Z,99520.28
2022-11-30T20:43:49.092Z,99521.25
2022-11-30T20:46:21.911Z,99524.03
2022-11-30T20:48:49.313Z,99519.78
2022-11-30T20:51:30.714Z,99515.41
2022-11-30T20:54:07.191Z,99513.50
2022-11-30T20:56:39.482Z,99535.81
2022-11-30T20:59:13.724Z,99530.50
2022-11-30T21:01:44.384Z,99529.53
2022-11-30T21:04:12.858Z,99522.53
2022-11-30T21:06:40.803Z,99522.75
2022-11-30T21:09:07.699Z,99534.19
2022-11-30T21:11:34.647Z,99511.59
2022-11-30T21:14:01.679Z,99530.59
2022-11-30T21:16:29.973Z,99515.75
2022-11-30T21:18:59.330Z,99537.31
2022-11-30T21:21:30.762Z,99520.63
2022-11-30T21:24:00.342Z,99534.75
2022-11-30T21:26:30.233Z,99524.69
2022-11-30T21:29:04.675Z,99525.41
2022-11-30T21:31:32.196Z,99510.78
2022-11-30T21:34:00.642Z,99523.88
2022-11-30T21:36:27.979Z,99509.53
2022-11-30T21:39:01.084Z,99518.34
2022-11-30T21:41:31.272Z,99521.63
2022-11-30T21:43:59.453Z,99532.31
2022-11-30T21:46:26.441Z,99523.41
2022-11-30T21:48:53.552Z,99524.88
2022-11-30T21:51:23.750Z,99529.47
2022-11-30T21:53:54.683Z,99528.28
2022-11-30T21:56:29.746Z,99473.31
2022-11-30T21:58:57.231Z,99525.13
2022-11-30T22:01:27.133Z,99527.53
2022-11-30T22:03:56.071Z,99521.59
2022-11-30T22:06:24.720Z,99497.31
2022-11-30T22:08:52.128Z,99504.09
2022-11-30T22:11:21.327Z,99510.44
2022-11-30T22:13:53.264Z,99490.50
2022-11-30T22:16:21.184Z,99525.09
2022-11-30T22:18:48.674Z,99523.38
2022-11-30T22:21:18.041Z,99522.19
2022-11-30T22:23:47.543Z,99528.50
2022-11-30T22:26:15.956Z,99521.38
2022-11-30T22:28:45.350Z,99523.38
2022-11-30T22:31:14.625Z,99515.59
2022-11-30T22:33:43.243Z,99516.06
2022-11-30T22:36:31.410Z,99514.41
2022-11-30T22:39:00.946Z,99519.97
2022-11-30T22:41:28.545Z,99516.34
2022-11-30T22:43:57.189Z,99484.94
2022-11-30T22:46:25.238Z,99525.06
2022-11-30T22:48:53.025Z,99526.31
2022-11-30T22:51:24.890Z,99525.13
2022-11-30T22:53:52.958Z,99517.88
2022-11-30T22:56:22.367Z,99515.53
2022-11-30T22:58:51.020Z,99503.78
2022-11-30T23:01:20.845Z,99505.13
2022-11-30T23:03:49.349Z,99509.25
2022-11-30T23:06:17.907Z,99499.69
2022-11-30T23:08:46.199Z,99503.53
2022-11-30T23:11:16.168Z,99495.47
2022-11-30T23:13:43.675Z,99480.34
2022-11-30T23:16:13.185Z,99496.94
2022-11-30T23:18:49.570Z,99498.41
2022-11-30T23:21:25.216Z,99500.13
2022-11-30T23:23:53.068Z,99494.56
2022-11-30T23:26:22.606Z,99500.59
2022-11-30T23:28:51.519Z,99493.94
2022-11-30T23:31:32.680Z,99485.13
2022-11-30T23:34:02.998Z,99498.94
2022-11-30T23:36:29.852Z,99480.75
2022-11-30T23:38:59.472Z,99490.94
2022-11-30T23:41:27.314Z,99486.34
2022-11-30T23:43:54.616Z,99482.63
2022-11-30T23:46:22.163Z,99478.78
2022-11-30T23:48:49.430Z,99473.69
2022-11-30T23:51:16.437Z,99461.56
2022-11-30T23:53:43.313Z,99482.78
2022-11-30T23:56:14.052Z,99476.63
2022-11-30T23:58:41.231Z,99467.47
